Time;durP1;ratioP1;P1;durP2;ratioP2;P2;SDS_P1;SDS_P2;PMS_P1;PMS_P2;Temp;Humidity;BMP_temperature;BMP_pressure;BME280_temperature;BME280_humidity;BME280_pressure;Samples;Min_cycle;Max_cycle;Signal;HPM_P1;HPM_P2
2022/10/13 00:00:10;;;;;;;28.65;16.88;;;;;;;9.40;100.00;101925.19;5009646;28;20038;-72
2022/10/13 00:02:35;;;;;;;24.55;16.40;;;;;;;9.32;100.00;101912.19;5014518;28;20030;-72
2022/10/13 00:05:00;;;;;;;28.25;16.38;;;;;;;9.37;100.00;101913.03;5011550;28;20022;-72
2022/10/13 00:07:25;;;;;;;26.30;15.73;;;;;;;9.36;100.00;101919.97;5016633;28;20034;-72
2022/10/13 00:09:51;;;;;;;31.70;16.25;;;;;;;9.34;100.00;101916.50;5017083;28;20385;-72
2022/10/13 00:12:16;;;;;;;25.42;16.23;;;;;;;9.25;100.00;101892.22;5016688;28;20037;-72
2022/10/13 00:14:41;;;;;;;28.05;15.63;;;;;;;9.29;100.00;101896.56;5008165;28;20026;-72
2022/10/13 00:17:07;;;;;;;28.08;16.75;;;;;;;9.33;100.00;101901.75;5017422;28;20042;-72
2022/10/13 00:19:32;;;;;;;31.70;16.95;;;;;;;9.34;100.00;101900.03;5016433;28;20107;-72
2022/10/13 00:21:58;;;;;;;30.55;17.10;;;;;;;9.32;100.00;101886.16;5002712;28;20317;-72
2022/10/13 00:24:23;;;;;;;26.52;16.58;;;;;;;9.33;100.00;101898.28;5015942;28;20103;-72
2022/10/13 00:26:49;;;;;;;26.98;16.23;;;;;;;9.27;100.00;101890.50;5015850;28;20083;-71
2022/10/13 00:29:15;;;;;;;30.45;17.52;;;;;;;9.32;100.00;101896.56;5012230;28;20116;-72
2022/10/13 00:31:40;;;;;;;29.58;16.33;;;;;;;9.31;100.00;101892.22;5013667;28;20169;-72
2022/10/13 00:34:05;;;;;;;29.92;16.77;;;;;;;9.32;100.00;101894.84;5002945;28;20105;-72
2022/10/13 00:36:31;;;;;;;29.63;17.15;;;;;;;9.32;100.00;101897.44;5017067;28;20026;-72
2022/10/13 00:38:57;;;;;;;27.58;16.83;;;;;;;9.31;100.00;101890.47;5016756;28;20096;-72
2022/10/13 00:41:22;;;;;;;31.42;15.98;;;;;;;9.32;100.00;101891.38;5014782;28;20118;-72
2022/10/13 00:43:57;;;;;;;27.60;16.52;;;;;;;9.28;100.00;101892.22;5013406;28;20026;-72
2022/10/13 00:46:25;;;;;;;29.20;15.20;;;;;;;9.26;100.00;101886.16;5010121;28;20482;-72
2022/10/13 00:48:52;;;;;;;34.05;16.42;;;;;;;9.28;100.00;101897.41;5015382;28;20392;-72
2022/10/13 00:51:22;;;;;;;31.20;16.75;;;;;;;9.28;100.00;101887.88;5014522;28;20084;-72
2022/10/13 00:53:47;;;;;;;29.83;16.50;;;;;;;9.29;100.00;101887.03;5016062;28;20469;-72
2022/10/13 00:56:16;;;;;;;32.45;17.10;;;;;;;9.32;100.00;101880.97;5012753;28;20071;-72
2022/10/13 00:58:43;;;;;;;28.63;17.10;;;;;;;9.31;100.00;101881.81;5014396;28;20038;-72
2022/10/13 01:01:09;;;;;;;25.65;15.68;;;;;;;9.37;100.00;101889.59;5016259;28;20486;-72
2022/10/13 01:03:36;;;;;;;25.50;16.00;;;;;;;9.38;100.00;101886.13;5008644;28;20030;-72
2022/10/13 01:06:04;;;;;;;26.67;16.38;;;;;;;9.38;100.00;101886.13;5016438;28;20033;-72
2022/10/13 01:08:30;;;;;;;29.45;16.23;;;;;;;9.36;100.00;101885.28;5015145;28;20079;-72
2022/10/13 01:11:21;;;;;;;32.67;16.77;;;;;;;9.37;100.00;101887.00;5014298;28;20480;-72
2022/10/13 01:13:57;;;;;;;37.00;16.35;;;;;;;9.38;100.00;101886.13;4998618;28;20053;-72
2022/10/13 01:16:28;;;;;;;31.17;15.82;;;;;;;9.40;100.00;101886.13;5011855;28;20034;-72
2022/10/13 01:19:12;;;;;;;27.02;15.25;;;;;;;9.38;100.00;101881.81;5013680;28;20081;-72
2022/10/13 01:21:42;;;;;;;;;;;;;;;9.39;100.00;101885.28;5012853;28;20088;-72
2022/10/13 01:24:28;;;;;;;30.58;14.93;;;;;;;9.36;100.00;101880.06;5013104;28;19925;-72
2022/10/13 01:27:07;;;;;;;30.25;16.30;;;;;;;9.39;100.00;101890.47;5011740;28;20034;-72
2022/10/13 01:30:04;;;;;;;27.25;14.50;;;;;;;9.36;100.00;101882.69;5001930;28;20096;-72
2022/10/13 01:32:35;;;;;;;33.15;15.75;;;;;;;9.38;100.00;101880.91;5012728;28;20022;-72
2022/10/13 01:35:10;;;;;;;30.95;15.32;;;;;;;9.38;100.00;101889.63;5024142;28;20036;-72
2022/10/13 01:37:58;;;;;;;27.92;15.50;;;;;;;9.40;100.00;101878.34;5013928;28;20018;-72
2022/10/13 01:40:28;;;;;;;37.17;15.73;;;;;;;9.44;100.00;101880.03;5012551;28;20060;-72
2022/10/13 01:43:23;;;;;;;34.47;16.63;;;;;;;9.44;100.00;101882.66;5014355;28;20026;-72
2022/10/13 01:45:55;;;;;;;26.00;14.02;;;;;;;9.44;100.00;101873.09;5000499;28;20065;-72
2022/10/13 01:48:21;;;;;;;32.33;15.18;;;;;;;9.46;100.00;101873.97;5007377;28;20064;-72
2022/10/13 01:50:47;;;;;;;32.58;15.70;;;;;;;9.43;100.00;101867.91;5013939;28;20056;-72
2022/10/13 01:53:14;;;;;;;29.73;15.55;;;;;;;9.49;100.00;101868.75;5013468;28;20105;-72
2022/10/13 01:55:56;;;;;;;32.50;17.02;;;;;;;9.50;100.00;101864.41;5013546;28;20444;-72
2022/10/13 01:58:24;;;;;;;34.95;16.63;;;;;;;9.51;100.00;101866.16;5001713;28;20022;-72
2022/10/13 02:01:20;;;;;;;33.17;15.43;;;;;;;9.49;100.00;101863.56;5006074;28;20088;-72
2022/10/13 02:03:56;;;;;;;34.08;16.15;;;;;;;9.50;100.00;101854.88;5010926;28;20044;-72
2022/10/13 02:06:50;;;;;;;29.60;16.02;;;;;;;9.53;100.00;101854.88;5009747;28;20022;-72
2022/10/13 02:09:40;;;;;;;30.98;15.00;;;;;;;9.54;100.00;101856.59;5003020;28;20137;-72
2022/10/13 02:12:13;;;;;;;27.98;15.23;;;;;;;9.57;100.00;101846.16;5010727;28;20385;-72
2022/10/13 02:14:41;;;;;;;31.17;16.10;;;;;;;9.60;100.00;101846.16;5001453;28;20552;-73
2022/10/13 02:17:06;;;;;;;34.85;15.05;;;;;;;9.59;100.00;101835.75;5011062;28;20305;-72
2022/10/13 02:19:37;;;;;;;29.83;15.35;;;;;;;9.63;100.00;101837.47;5011218;28;20560;-72
2022/10/13 02:22:04;;;;;;;33.85;14.55;;;;;;;9.67;100.00;101838.31;5010410;28;20485;-72
2022/10/13 02:24:31;;;;;;;36.00;15.85;;;;;;;9.68;100.00;101838.34;5011182;28;20037;-72
2022/10/13 02:26:56;;;;;;;29.15;15.95;;;;;;;9.64;100.00;101820.13;5011579;28;20037;-72
2022/10/13 02:29:22;;;;;;;27.88;14.35;;;;;;;9.63;100.00;101828.81;5012011;28;20107;-72
2022/10/13 02:31:47;;;;;;;31.90;15.20;;;;;;;9.64;100.00;101820.97;5012016;28;20525;-72
2022/10/13 02:34:13;;;;;;;27.45;14.55;;;;;;;9.65;100.00;101827.06;5009926;28;20041;-72
2022/10/13 02:36:39;;;;;;;29.42;15.18;;;;;;;9.68;100.00;101821.81;5009763;28;20121;-72
2022/10/13 02:39:07;;;;;;;26.25;15.32;;;;;;;9.70;100.00;101830.50;5013335;28;20026;-72
2022/10/13 02:41:32;;;;;;;29.80;14.90;;;;;;;9.73;100.00;101825.28;5010552;28;20061;-72
2022/10/13 02:43:58;;;;;;;31.23;15.23;;;;;;;9.78;100.00;101818.34;5018905;28;20065;-72
2022/10/13 02:46:23;;;;;;;27.88;15.23;;;;;;;9.81;100.00;101823.53;5013325;28;20032;-72
2022/10/13 02:48:48;;;;;;;28.10;14.85;;;;;;;9.84;100.00;101823.47;5011807;28;20359;-72
2022/10/13 02:51:14;;;;;;;27.42;15.55;;;;;;;9.85;100.00;101817.44;5011004;28;20057;-72
2022/10/13 02:53:39;;;;;;;29.70;14.82;;;;;;;9.87;100.00;101820.88;5009227;28;20042;-72
2022/10/13 02:56:05;;;;;;;22.52;14.10;;;;;;;9.85;100.00;101812.22;5010094;28;20026;-72
2022/10/13 02:58:30;;;;;;;28.90;14.07;;;;;;;9.83;100.00;101808.75;5008946;28;20049;-72
2022/10/13 03:01:07;;;;;;;27.20;14.55;;;;;;;9.82;100.00;101814.84;5009066;28;20030;-72
2022/10/13 03:03:33;;;;;;;27.90;14.27;;;;;;;9.78;100.00;101811.38;5004135;28;20022;-72
2022/10/13 03:05:59;;;;;;;25.55;14.23;;;;;;;9.78;100.00;101820.94;5011529;28;20089;-72
2022/10/13 03:08:25;;;;;;;24.52;14.93;;;;;;;9.69;100.00;101797.53;5011353;28;20038;-72
2022/10/13 03:10:50;;;;;;;29.50;14.07;;;;;;;9.72;100.00;101802.72;5010880;28;20389;-72
2022/10/13 03:13:15;;;;;;;33.40;14.60;;;;;;;9.71;100.00;101804.47;5008548;28;20040;-72
2022/10/13 03:15:40;;;;;;;25.88;13.85;;;;;;;9.74;100.00;101799.22;5011552;28;20100;-72
2022/10/13 03:18:06;;;;;;;28.33;14.85;;;;;;;9.63;100.00;101788.00;5010623;28;20030;-72
2022/10/13 03:20:31;;;;;;;24.80;14.13;;;;;;;9.69;100.00;101784.53;5010977;28;20498;-72
2022/10/13 03:22:56;;;;;;;25.08;13.98;;;;;;;9.74;100.00;101790.56;5010407;28;20026;-72
2022/10/13 03:25:21;;;;;;;28.20;15.23;;;;;;;9.74;100.00;101800.97;5009534;28;20065;-72
2022/10/13 03:27:47;;;;;;;28.85;14.77;;;;;;;9.68;100.00;101799.28;5010155;28;20083;-72
2022/10/13 03:30:12;;;;;;;28.05;14.52;;;;;;;9.74;100.00;101806.19;5011247;28;22263;-72
2022/10/13 03:32:38;;;;;;;27.63;14.70;;;;;;;9.70;100.00;101794.06;5006450;28;20107;-72
2022/10/13 03:35:04;;;;;;;30.83;15.23;;;;;;;9.75;100.00;101795.78;5010379;28;20026;-72
2022/10/13 03:37:29;;;;;;;30.08;14.40;;;;;;;9.66;100.00;101774.13;5010448;28;20105;-72
2022/10/13 03:39:55;;;;;;;26.90;15.40;;;;;;;9.75;100.00;101787.09;5011302;28;20505;-72
2022/10/13 03:42:21;;;;;;;23.13;14.35;;;;;;;9.82;100.00;101789.66;5006825;28;20048;-72
2022/10/13 03:44:47;;;;;;;25.50;14.15;;;;;;;9.82;100.00;101787.06;5010303;28;20416;-72
2022/10/13 03:47:12;;;;;;;26.95;14.32;;;;;;;9.83;100.00;101780.94;5010176;28;20065;-72
2022/10/13 03:49:37;;;;;;;27.20;14.27;;;;;;;9.88;100.00;101780.09;5011479;28;20053;-72
2022/10/13 03:52:03;;;;;;;26.95;14.27;;;;;;;9.91;100.00;101780.03;5009860;28;20030;-72
2022/10/13 03:54:28;;;;;;;24.50;13.85;;;;;;;9.88;100.00;101762.72;5010202;28;20424;-72
2022/10/13 03:56:54;;;;;;;24.38;14.35;;;;;;;9.94;100.00;101777.41;5006610;28;20033;-72
2022/10/13 03:59:19;;;;;;;28.38;13.77;;;;;;;9.87;100.00;101760.97;5003902;28;20048;-72
2022/10/13 04:01:44;;;;;;;29.10;14.13;;;;;;;9.96;100.00;101770.47;5010498;28;20092;-72
2022/10/13 04:04:11;;;;;;;28.52;14.70;;;;;;;9.98;100.00;101769.59;5010085;28;20044;-72
2022/10/13 04:06:36;;;;;;;27.80;14.70;;;;;;;9.94;100.00;101756.59;5009710;28;20030;-72
2022/10/13 04:09:02;;;;;;;25.13;13.68;;;;;;;10.00;100.00;101761.75;5012047;28;20101;-72
2022/10/13 04:11:28;;;;;;;31.33;14.40;;;;;;;9.88;100.00;101736.66;5006636;28;20034;-72
2022/10/13 04:13:55;;;;;;;26.83;14.93;;;;;;;10.04;100.00;101764.34;5007340;28;20049;-72
2022/10/13 04:16:22;;;;;;;23.15;15.02;;;;;;;10.03;100.00;101746.97;5009841;28;20033;-72
2022/10/13 04:18:56;;;;;;;24.50;13.95;;;;;;;10.08;100.00;101760.84;5011940;28;20030;-72
2022/10/13 04:21:22;;;;;;;26.58;14.18;;;;;;;10.06;100.00;101764.31;5010128;28;20044;-72
2022/10/13 04:23:47;;;;;;;25.35;15.95;;;;;;;10.09;100.00;101764.31;5010126;28;20542;-72
2022/10/13 04:26:16;;;;;;;26.70;14.45;;;;;;;10.07;100.00;101742.59;5001458;28;20034;-72
2022/10/13 04:28:41;;;;;;;26.52;14.35;;;;;;;9.97;100.00;101728.81;5004482;28;20084;-72
2022/10/13 04:31:06;;;;;;;26.35;14.65;;;;;;;10.12;100.00;101743.44;5011069;28;20022;-72
2022/10/13 04:33:32;;;;;;;23.40;13.50;;;;;;;10.11;100.00;101739.13;5010394;28;20522;-72
2022/10/13 04:35:57;;;;;;;28.27;14.60;;;;;;;10.09;100.00;101726.09;5008265;28;20617;-72
2022/10/13 04:38:23;;;;;;;26.30;14.55;;;;;;;10.11;100.00;101739.13;5008011;28;20017;-72
2022/10/13 04:40:49;;;;;;;28.73;14.70;;;;;;;10.13;100.00;101739.09;5008413;28;20092;-72
2022/10/13 04:43:14;;;;;;;33.25;15.25;;;;;;;10.13;100.00;101744.31;5006394;28;20486;-72
2022/10/13 04:45:40;;;;;;;23.83;13.57;;;;;;;10.05;100.00;101733.94;5008377;28;20061;-72
2022/10/13 04:48:05;;;;;;;23.90;13.05;;;;;;;10.09;100.00;101736.50;5010657;28;20065;-72
2022/10/13 04:50:30;;;;;;;25.30;14.50;;;;;;;10.08;100.00;101731.31;5013310;28;20040;-72
2022/10/13 04:52:55;;;;;;;32.47;14.90;;;;;;;10.02;100.00;101733.97;5014837;28;20120;-72
2022/10/13 04:55:21;;;;;;;24.65;13.52;;;;;;;10.06;100.00;101741.75;5011021;28;20034;-73
2022/10/13 04:57:46;;;;;;;28.90;14.43;;;;;;;10.03;100.00;101746.97;5014513;28;20030;-72
2022/10/13 05:00:12;;;;;;;27.77;14.98;;;;;;;9.99;100.00;101726.16;5014278;28;20022;-73
2022/10/13 05:02:37;;;;;;;24.13;13.77;;;;;;;10.02;100.00;101737.44;5009343;28;20037;-73
2022/10/13 05:05:04;;;;;;;21.92;13.45;;;;;;;10.03;100.00;101736.53;5003103;28;20018;-72
2022/10/13 05:07:30;;;;;;;25.35;13.50;;;;;;;9.99;100.00;101728.78;5014112;28;20030;-73
2022/10/13 05:09:55;;;;;;;23.75;13.23;;;;;;;9.98;100.00;101742.69;5013476;28;20420;-72
2022/10/13 05:12:20;;;;;;;22.83;14.00;;;;;;;9.97;100.00;101736.63;5012410;28;20021;-73
2022/10/13 05:14:46;;;;;;;25.30;14.32;;;;;;;10.00;100.00;101739.16;5012877;28;20394;-72
2022/10/13 05:17:11;;;;;;;25.10;13.45;;;;;;;9.95;100.00;101730.53;5012470;28;20034;-72
2022/10/13 05:19:36;;;;;;;25.33;13.55;;;;;;;10.04;100.00;101740.03;5012527;28;20053;-72
2022/10/13 05:22:02;;;;;;;23.23;14.15;;;;;;;10.00;100.00;101730.50;5012533;28;20050;-72
2022/10/13 05:24:37;;;;;;;24.83;13.85;;;;;;;9.99;100.00;101740.06;5012754;28;20156;-72
2022/10/13 05:27:08;;;;;;;25.23;13.80;;;;;;;9.97;100.00;101738.31;5010318;28;20524;-72
2022/10/13 05:29:34;;;;;;;26.02;13.90;;;;;;;9.98;100.00;101746.16;5012147;28;20481;-72
2022/10/13 05:32:00;;;;;;;29.60;14.88;;;;;;;9.53;100.00;101672.66;5013454;28;20030;-72
2022/10/13 05:34:25;;;;;;;24.90;14.48;;;;;;;9.85;100.00;101726.28;5010933;28;20022;-73
2022/10/13 05:36:50;;;;;;;25.67;13.88;;;;;;;9.97;100.00;101741.81;5009685;28;20038;-72
2022/10/13 05:39:15;;;;;;;30.65;14.65;;;;;;;9.96;100.00;101739.22;5013900;28;20029;-72
2022/10/13 05:41:41;;;;;;;24.63;14.18;;;;;;;9.95;100.00;101743.56;5012308;28;20032;-72
2022/10/13 05:44:07;;;;;;;25.15;14.80;;;;;;;9.92;100.00;101742.72;5010584;28;20022;-72
2022/10/13 05:46:33;;;;;;;26.25;14.82;;;;;;;9.90;100.00;101731.44;5010849;28;20060;-72
2022/10/13 05:48:59;;;;;;;28.70;15.73;;;;;;;9.93;100.00;101734.88;5013328;28;20469;-72
2022/10/13 05:51:29;;;;;;;30.58;14.82;;;;;;;9.90;100.00;101731.44;5012577;28;20025;-73
2022/10/13 05:54:05;;;;;;;26.55;14.93;;;;;;;9.93;100.00;101734.88;5013761;28;20117;-72
2022/10/13 05:56:42;;;;;;;28.00;14.68;;;;;;;9.94;100.00;101739.25;5011294;28;20052;-72
2022/10/13 05:59:11;;;;;;;25.88;14.57;;;;;;;9.98;100.00;101734.88;5009948;28;20022;-72
2022/10/13 06:01:39;;;;;;;32.42;15.55;;;;;;;10.03;100.00;101741.75;5011647;28;20029;-72
2022/10/13 06:04:09;;;;;;;31.23;15.27;;;;;;;10.04;100.00;101733.09;5008513;28;20088;-72
2022/10/13 06:06:35;;;;;;;29.13;15.35;;;;;;;10.12;100.00;101739.97;5010327;28;20041;-72
2022/10/13 06:09:00;;;;;;;24.73;14.48;;;;;;;10.16;100.00;101733.88;5014177;28;20022;-72
2022/10/13 06:11:26;;;;;;;32.17;14.65;;;;;;;10.15;100.00;101724.31;5010231;28;20478;-72
2022/10/13 06:13:51;;;;;;;27.25;14.60;;;;;;;10.19;100.00;101726.03;5008834;28;20030;-72
2022/10/13 06:16:17;;;;;;;26.55;15.00;;;;;;;10.19;100.00;101720.81;5012857;28;20466;-72
2022/10/13 06:18:42;;;;;;;26.17;13.65;;;;;;;10.24;100.00;101716.44;5010031;28;20485;-72
2022/10/13 06:21:07;;;;;;;29.67;15.40;;;;;;;10.24;100.00;101700.81;5012902;28;20068;-73
2022/10/13 06:23:33;;;;;;;30.33;14.90;;;;;;;10.28;100.00;101710.34;5006404;28;20030;-72
2022/10/13 06:25:58;;;;;;;26.35;13.95;;;;;;;10.29;100.00;101717.28;5009580;28;20062;-72
2022/10/13 06:28:23;;;;;;;27.20;14.70;;;;;;;10.29;100.00;101712.06;5011309;28;20025;-72
2022/10/13 06:30:53;;;;;;;27.98;14.90;;;;;;;10.32;100.00;101710.31;5016910;28;20021;-72
2022/10/13 06:33:19;;;;;;;29.75;15.55;;;;;;;10.30;100.00;101719.03;5013616;28;20036;-72
2022/10/13 06:35:45;;;;;;;26.50;13.57;;;;;;;10.38;100.00;101709.38;5024422;28;20076;-72
2022/10/13 06:38:10;;;;;;;27.20;14.60;;;;;;;10.40;100.00;101712.88;5013703;28;20026;-72
2022/10/13 06:40:35;;;;;;;30.00;15.05;;;;;;;10.43;100.00;101720.66;5013863;28;20508;-72
2022/10/13 06:43:01;;;;;;;29.20;16.75;;;;;;;10.46;100.00;101710.19;5012153;28;20029;-73
2022/10/13 06:45:26;;;;;;;23.08;13.10;;;;;;;10.46;100.00;101701.50;5012778;28;20432;-72
2022/10/13 06:47:53;;;;;;;27.55;14.25;;;;;;;10.51;100.00;101724.03;5012587;28;20456;-72
2022/10/13 06:50:19;;;;;;;31.50;15.80;;;;;;;10.51;100.00;101708.41;5012144;28;20042;-72
2022/10/13 06:52:44;;;;;;;31.55;15.13;;;;;;;10.57;100.00;101709.22;5009169;28;20405;-72
2022/10/13 06:55:09;;;;;;;26.27;14.43;;;;;;;10.65;100.00;101707.41;5011889;28;20504;-73
2022/10/13 06:57:35;;;;;;;28.02;15.70;;;;;;;10.68;100.00;101705.63;5012492;28;20026;-72
2022/10/13 07:00:00;;;;;;;30.52;15.77;;;;;;;10.71;100.00;101713.41;5012773;28;20084;-71
2022/10/13 07:02:25;;;;;;;24.50;15.02;;;;;;;10.71;100.00;101710.81;5009808;28;20032;-72
2022/10/13 07:04:51;;;;;;;27.25;16.33;;;;;;;10.70;100.00;101703.00;5012288;28;20488;-72
2022/10/13 07:07:16;;;;;;;33.20;17.25;;;;;;;10.74;100.00;101709.91;5012401;28;20072;-72
2022/10/13 07:09:41;;;;;;;30.20;16.83;;;;;;;10.73;100.00;101703.00;5009628;28;20104;-71
2022/10/13 07:12:07;;;;;;;33.28;16.77;;;;;;;10.75;100.00;101709.03;5009278;28;20030;-72
2022/10/13 07:14:32;;;;;;;36.28;17.88;;;;;;;10.76;100.00;101709.03;5007913;28;20105;-72
2022/10/13 07:16:58;;;;;;;30.80;17.25;;;;;;;10.79;100.00;101713.38;5010065;28;20034;-73
2022/10/13 07:19:23;;;;;;;31.63;17.65;;;;;;;10.85;100.00;101733.28;5011219;28;20057;-73
2022/10/13 07:21:51;;;;;;;32.20;17.25;;;;;;;10.90;100.00;101711.50;5012111;28;20033;-72
2022/10/13 07:24:16;;;;;;;29.02;17.20;;;;;;;10.95;100.00;101706.22;5009876;28;20076;-73
2022/10/13 07:26:41;;;;;;;30.88;17.15;;;;;;;11.02;100.00;101700.91;5002153;28;20034;-73
2022/10/13 07:29:07;;;;;;;28.75;16.77;;;;;;;11.11;100.00;101709.50;5008264;28;20490;-73
2022/10/13 07:31:32;;;;;;;31.25;16.60;;;;;;;11.15;100.00;101712.09;5011585;28;20116;-73
2022/10/13 07:33:58;;;;;;;32.33;17.38;;;;;;;11.22;100.00;101718.09;5011209;28;20044;-73
2022/10/13 07:36:24;;;;;;;32.78;17.45;;;;;;;11.24;100.00;101711.09;5011617;28;20049;-73
2022/10/13 07:38:50;;;;;;;31.98;18.42;;;;;;;11.30;100.00;101718.84;5009957;28;20022;-73
2022/10/13 07:41:15;;;;;;;33.53;18.05;;;;;;;11.32;100.00;101708.41;5011069;28;20381;-72
2022/10/13 07:43:41;;;;;;;29.63;17.30;;;;;;;11.30;100.00;101703.19;5009324;28;20363;-73
2022/10/13 07:46:07;;;;;;;29.90;17.55;;;;;;;11.37;100.00;101712.66;5011815;28;20100;-72
2022/10/13 07:48:33;;;;;;;30.08;17.13;;;;;;;11.42;100.00;101710.00;5011601;28;20029;-73
2022/10/13 07:50:58;;;;;;;27.05;16.42;;;;;;;11.54;100.00;101703.72;5010401;28;20161;-73
2022/10/13 07:53:23;;;;;;;34.20;17.80;;;;;;;11.68;100.00;101713.13;5012469;28;20045;-72
2022/10/13 07:55:54;;;;;;;31.17;17.00;;;;;;;11.78;100.00;101702.53;5003859;28;20030;-73
2022/10/13 07:58:19;;;;;;;33.25;16.88;;;;;;;12.00;100.00;101717.06;5010923;28;20448;-73
2022/10/13 08:00:44;;;;;;;32.33;16.35;;;;;;;12.14;100.00;101716.81;5011902;28;20054;-73
2022/10/13 08:03:10;;;;;;;31.10;16.02;;;;;;;12.23;100.00;101708.84;5012161;28;20109;-73
2022/10/13 08:05:38;;;;;;;32.58;16.95;;;;;;;12.27;100.00;101709.66;5010327;28;20030;-74
2022/10/13 08:08:03;;;;;;;26.02;15.32;;;;;;;12.28;100.00;101706.13;5012032;28;20034;-73
2022/10/13 08:10:31;;;;;;;28.90;15.55;;;;;;;12.30;100.00;101712.22;5010652;28;20029;-72
2022/10/13 08:12:56;;;;;;;28.92;15.27;;;;;;;12.31;100.00;101709.56;5011875;28;20061;-73
2022/10/13 08:15:22;;;;;;;28.02;15.48;;;;;;;12.25;100.00;101707.03;5000864;28;20103;-73
2022/10/13 08:17:47;;;;;;;26.85;15.13;;;;;;;12.24;100.00;101710.56;5009926;28;20033;-73
2022/10/13 08:20:12;;;;;;;23.42;13.88;;;;;;;12.21;100.00;101709.75;5011630;28;20034;-73
2022/10/13 08:22:38;;;;;;;30.92;15.02;;;;;;;12.23;100.00;101710.56;5013743;28;20532;-74
2022/10/13 08:25:03;;;;;;;26.90;15.50;;;;;;;12.31;100.00;101701.72;5014933;28;20484;-72
2022/10/13 08:27:30;;;;;;;30.35;15.13;;;;;;;12.44;100.00;101704.13;5008259;28;20562;-72
2022/10/13 08:29:55;;;;;;;26.70;15.25;;;;;;;12.56;100.00;101694.31;5015530;28;20052;-73
2022/10/13 08:32:21;;;;;;;25.67;13.82;;;;;;;12.68;100.00;101693.22;5012982;28;20470;-73
2022/10/13 08:34:48;;;;;;;24.15;14.40;;;;;;;12.79;100.00;101685.19;5012426;28;20166;-72
2022/10/13 08:37:15;;;;;;;28.42;14.38;;;;;;;12.85;100.00;101700.72;5012856;28;20113;-72
2022/10/13 08:39:41;;;;;;;27.70;13.60;;;;;;;12.87;100.00;101706.81;5026489;28;20485;-72
2022/10/13 08:42:18;;;;;;;24.73;14.13;;;;;;;12.86;100.00;101698.09;5013823;28;20021;-73
2022/10/13 08:44:56;;;;;;;23.58;14.02;;;;;;;12.88;100.00;101711.16;5008679;28;20025;-72
2022/10/13 08:47:47;;;;;;;25.88;13.70;;;;;;;12.87;100.00;101699.81;5014252;28;20422;-73
2022/10/13 08:50:16;;;;;;;23.55;13.55;;;;;;;12.88;100.00;101698.06;5002775;28;20073;-72
2022/10/13 08:52:47;;;;;;;23.48;12.93;;;;;;;12.95;100.00;101693.56;5024603;28;20034;-73
2022/10/13 08:55:34;;;;;;;30.40;13.20;;;;;;;13.07;100.00;101690.72;5006466;28;20022;-71
2022/10/13 08:58:01;;;;;;;23.95;13.38;;;;;;;13.10;100.00;101685.41;5008557;28;20041;-72
2022/10/13 09:00:31;;;;;;;23.50;13.98;;;;;;;13.18;100.00;101688.75;5014061;28;20026;-72
2022/10/13 09:03:18;;;;;;;20.38;13.27;;;;;;;13.23;100.00;101688.66;5013199;28;20036;-73
2022/10/13 09:05:57;;;;;;;22.80;13.25;;;;;;;13.20;100.00;101686.09;5015013;28;20033;-71
2022/10/13 09:08:25;;;;;;;26.15;13.15;;;;;;;13.11;100.00;101668.81;5014177;28;20477;-73
2022/10/13 09:10:52;;;;;;;22.38;13.43;;;;;;;13.09;100.00;101683.69;5014188;28;20088;-73
2022/10/13 09:13:17;;;;;;;22.80;14.02;;;;;;;12.99;100.00;101676.94;5008175;28;20066;-72
2022/10/13 09:15:46;;;;;;;22.25;13.52;;;;;;;12.87;100.00;101680.63;5012695;28;20022;-73
2022/10/13 09:18:12;;;;;;;26.38;13.57;;;;;;;12.74;100.00;101685.25;5008306;28;20434;-73
2022/10/13 09:20:38;;;;;;;23.77;13.90;;;;;;;12.72;100.00;101684.44;5010488;28;20088;-73
2022/10/13 09:23:19;;;;;;;26.52;13.38;;;;;;;12.66;100.00;101689.78;5014194;28;20022;-73
2022/10/13 09:25:50;;;;;;;25.17;14.30;;;;;;;12.65;100.00;101682.81;5007174;28;20029;-72
2022/10/13 09:28:25;;;;;;;28.70;13.90;;;;;;;12.67;100.00;101683.66;5001352;28;20038;-73
2022/10/13 09:31:12;;;;;;;26.60;14.60;;;;;;;12.75;100.00;101686.09;5005148;28;20037;-73
2022/10/13 09:33:37;;;;;;;28.95;13.43;;;;;;;12.80;100.00;101665.97;5008613;28;20042;-72
2022/10/13 09:36:03;;;;;;;23.90;13.55;;;;;;;12.98;100.00;101669.94;5007233;28;20048;-73
2022/10/13 09:38:29;;;;;;;23.40;14.15;;;;;;;13.07;100.00;101669.78;5010117;28;20034;-72
2022/10/13 09:41:03;;;;;;;26.30;14.02;;;;;;;13.07;100.00;101664.53;5012319;28;20091;-73
2022/10/13 09:43:33;;;;;;;26.40;13.65;;;;;;;13.07;100.00;101672.38;5007776;28;20029;-72
2022/10/13 09:46:00;;;;;;;22.98;13.77;;;;;;;13.00;100.00;101673.41;5013340;28;20021;-72
2022/10/13 09:48:29;;;;;;;23.23;13.73;;;;;;;12.92;100.00;101672.72;5010117;28;20033;-72
2022/10/13 09:50:56;;;;;;;22.65;13.45;;;;;;;12.77;100.00;101671.25;5008257;28;20048;-72
2022/10/13 09:53:24;;;;;;;25.83;13.20;;;;;;;12.61;100.00;101668.91;5012042;28;20076;-72
2022/10/13 09:56:06;;;;;;;26.50;13.68;;;;;;;12.50;100.00;101668.28;5025107;28;20056;-72
2022/10/13 09:58:38;;;;;;;22.60;13.82;;;;;;;12.35;100.00;101664.16;5006444;28;20124;-72
2022/10/13 10:01:04;;;;;;;23.00;13.95;;;;;;;12.18;100.00;101660.97;5006770;28;20117;-72
2022/10/13 10:03:34;;;;;;;28.50;15.30;;;;;;;12.07;100.00;101668.16;5010850;28;20500;-72
2022/10/13 10:06:01;;;;;;;30.75;15.27;;;;;;;12.04;100.00;101673.44;5013432;28;20034;-72
2022/10/13 10:08:36;;;;;;;27.00;14.93;;;;;;;11.97;100.00;101663.94;5013029;28;20062;-72
2022/10/13 10:11:09;;;;;;;27.10;15.25;;;;;;;11.95;100.00;101667.44;5011026;28;20021;-72
2022/10/13 10:13:35;;;;;;;26.77;15.38;;;;;;;11.92;100.00;101657.03;5012219;28;20041;-72
2022/10/13 10:16:12;;;;;;;28.92;16.48;;;;;;;11.83;100.00;101649.31;5011567;28;20105;-72
2022/10/13 10:18:56;;;;;;;28.33;16.63;;;;;;;11.83;100.00;101651.94;5013362;28;20442;-72
2022/10/13 10:21:35;;;;;;;;;;;;;;;11.79;100.00;101655.47;5010858;28;20113;-72
2022/10/13 10:24:18;;;;;;;28.45;15.38;;;;;;;11.76;100.00;101642.47;5013255;28;19913;-72
2022/10/13 10:27:04;;;;;;;27.57;16.73;;;;;;;11.72;100.00;101638.19;5010929;28;20042;-72
2022/10/13 10:30:11;;;;;;;28.30;16.38;;;;;;;11.77;100.00;101654.66;5011719;28;20048;-72
2022/10/13 10:32:48;;;;;;;32.33;16.30;;;;;;;11.84;100.00;101644.97;5004335;28;20038;-71
2022/10/13 10:35:26;;;;;;;32.35;17.85;;;;;;;11.90;100.00;101647.50;5003812;28;20112;-72
2022/10/13 10:38:10;;;;;;;34.55;17.60;;;;;;;11.98;100.00;101655.22;5011449;28;20022;-72
2022/10/13 10:40:53;;;;;;;29.10;17.13;;;;;;;12.06;100.00;101658.56;5011404;28;20025;-71
2022/10/13 10:43:38;;;;;;;28.95;17.60;;;;;;;12.20;100.00;101648.75;5002582;28;20476;-72
2022/10/13 10:46:11;;;;;;;33.00;16.88;;;;;;;12.28;100.00;101651.22;5015365;28;20029;-72
2022/10/13 10:48:38;;;;;;;26.15;17.27;;;;;;;12.31;100.00;101649.44;5010550;28;20034;-72
2022/10/13 10:51:08;;;;;;;27.42;16.77;;;;;;;12.35;100.00;101650.22;5010465;28;20048;-73
2022/10/13 10:53:52;;;;;;;29.10;15.95;;;;;;;12.40;100.00;101646.66;5007690;28;20088;-72
2022/10/13 10:56:41;;;;;;;28.90;18.10;;;;;;;12.46;100.00;101644.78;5007964;28;20036;-73
2022/10/13 10:59:45;;;;;;;29.55;16.58;;;;;;;12.44;100.00;101646.59;5010100;28;20140;-73
2022/10/13 11:02:18;;;;;;;28.75;15.68;;;;;;;12.37;100.00;101645.84;4993971;28;20041;-72
2022/10/13 11:04:48;;;;;;;31.25;16.23;;;;;;;12.35;100.00;101645.84;5006598;28;20513;-72
2022/10/13 11:07:23;;;;;;;26.00;15.65;;;;;;;12.36;100.00;101639.75;5011680;28;20092;-72
2022/10/13 11:09:49;;;;;;;25.95;14.55;;;;;;;12.43;100.00;101631.81;5011790;28;20034;-72
2022/10/13 11:12:20;;;;;;;27.48;15.68;;;;;;;12.52;100.00;101636.84;5012960;28;20393;-72